Time;durP1;ratioP1;P1;durP2;ratioP2;P2;SDS_P1;SDS_P2;PMS_P1;PMS_P2;Temp;Humidity;BMP_temperature;BMP_pressure;BME280_temperature;BME280_humidity;BME280_pressure;Samples;Min_cycle;Max_cycle;Signal;HPM_P1;HPM_P2
2023/08/15 00:00:36;;;;;;;18.45;5.68;;;;;;;20.58;100.00;101067.66;5073592;28;20032;-65
2023/08/15 00:03:01;;;;;;;18.70;6.18;;;;;;;20.36;100.00;101060.31;5073680;28;20075;-65
2023/08/15 00:05:26;;;;;;;18.80;6.07;;;;;;;20.38;100.00;101055.75;5073336;28;20115;-65
2023/08/15 00:07:52;;;;;;;18.75;6.10;;;;;;;20.24;100.00;101053.53;5073486;28;20055;-64
2023/08/15 00:10:17;;;;;;;17.83;5.82;;;;;;;20.31;100.00;101040.78;5073208;28;20036;-64
2023/08/15 00:12:42;;;;;;;20.05;6.00;;;;;;;20.29;100.00;101034.59;5073339;28;20029;-65
2023/08/15 00:15:09;;;;;;;19.65;6.35;;;;;;;20.36;100.00;101037.00;5073379;28;20375;-65
2023/08/15 00:17:34;;;;;;;18.95;5.82;;;;;;;20.44;100.00;101025.16;5073102;28;20067;-65
2023/08/15 00:20:00;;;;;;;20.70;6.53;;;;;;;20.36;100.00;101022.72;5073234;28;20059;-65
2023/08/15 00:22:25;;;;;;;21.30;6.47;;;;;;;20.36;100.00;101034.34;5073087;28;20039;-65
2023/08/15 00:24:50;;;;;;;19.23;6.40;;;;;;;20.18;100.00;101030.47;5073037;28;20024;-65
2023/08/15 00:27:16;;;;;;;19.33;6.35;;;;;;;20.19;100.00;101040.25;5073113;28;20108;-64
2023/08/15 00:29:41;;;;;;;19.30;6.20;;;;;;;19.97;100.00;101044.56;5072942;28;20135;-65
2023/08/15 00:32:06;;;;;;;19.98;6.45;;;;;;;19.83;100.00;101045.88;5073103;28;20419;-65
2023/08/15 00:34:32;;;;;;;19.15;6.22;;;;;;;19.78;100.00;101050.50;5073399;28;20056;-65
2023/08/15 00:36:57;;;;;;;18.90;6.15;;;;;;;19.71;100.00;101054.25;5072654;28;20043;-65
2023/08/15 00:39:22;;;;;;;19.60;6.53;;;;;;;19.55;100.00;101051.16;5072831;28;20082;-65
2023/08/15 00:41:48;;;;;;;19.70;5.85;;;;;;;19.57;100.00;101056.47;5072994;28;20032;-65
2023/08/15 00:44:13;;;;;;;20.50;6.20;;;;;;;19.55;100.00;101056.50;5072742;28;20283;-65
2023/08/15 00:46:39;;;;;;;19.73;6.30;;;;;;;19.50;100.00;101064.69;5072869;28;20171;-65
2023/08/15 00:49:07;;;;;;;19.58;6.45;;;;;;;19.54;100.00;101059.25;5072924;28;20039;-65
2023/08/15 00:51:33;;;;;;;18.85;6.40;;;;;;;19.45;100.00;101069.31;5072698;28;20079;-64
2023/08/15 00:53:59;;;;;;;19.70;6.30;;;;;;;19.38;100.00;101073.09;5072779;28;20024;-64
2023/08/15 00:56:25;;;;;;;18.77;6.35;;;;;;;19.15;100.00;101073.75;5072644;28;20037;-65
2023/08/15 00:58:50;;;;;;;20.38;6.65;;;;;;;18.93;100.00;101066.31;5072484;28;20029;-65
2023/08/15 01:01:17;;;;;;;19.10;6.57;;;;;;;18.80;100.00;101072.88;5072818;28;20086;-64
2023/08/15 01:03:42;;;;;;;20.73;6.75;;;;;;;18.88;100.00;101070.88;5072585;28;20020;-65
2023/08/15 01:06:08;;;;;;;21.15;6.65;;;;;;;18.84;100.00;101061.13;5072470;28;20479;-65
2023/08/15 01:08:33;;;;;;;18.83;6.35;;;;;;;18.89;100.00;101064.63;5072814;28;20055;-65
2023/08/15 01:11:00;;;;;;;20.38;6.60;;;;;;;18.81;100.00;101055.88;5072392;28;20035;-66
2023/08/15 01:13:34;;;;;;;19.15;5.70;;;;;;;18.72;100.00;101050.78;5072472;28;20368;-65
2023/08/15 01:16:03;;;;;;;19.60;6.18;;;;;;;18.70;100.00;101052.59;5072852;28;20058;-65
2023/08/15 01:18:37;;;;;;;17.90;5.55;;;;;;;18.66;100.00;101064.31;5072648;28;20052;-65
2023/08/15 01:21:03;;;;;;;20.52;6.07;;;;;;;18.57;100.00;101054.72;5072384;28;20021;-67
2023/08/15 01:23:45;;;;;;;18.58;5.95;;;;;;;18.42;100.00;101058.66;5072382;28;20029;-65
2023/08/15 01:26:10;;;;;;;18.83;5.80;;;;;;;18.34;100.00;101048.16;5072221;28;20051;-64
2023/08/15 01:28:38;;;;;;;18.90;5.47;;;;;;;18.37;100.00;101053.41;5072514;28;20021;-65
2023/08/15 01:31:30;;;;;;;19.27;5.82;;;;;;;18.44;100.00;101059.50;5072164;28;20032;-65
2023/08/15 01:34:17;;;;;;;18.95;5.60;;;;;;;18.46;100.00;101058.56;5069515;28;20031;-64
2023/08/15 01:37:08;;;;;;;19.50;5.63;;;;;;;18.44;100.00;101073.75;5072228;28;20032;-65
2023/08/15 01:39:37;;;;;;;19.33;5.85;;;;;;;18.24;100.00;101084.06;5070790;28;20024;-65
2023/08/15 01:42:03;;;;;;;19.08;5.47;;;;;;;18.10;100.00;101101.34;5072220;28;20421;-64
2023/08/15 01:44:30;;;;;;;19.50;5.40;;;;;;;18.02;100.00;101094.41;5072096;28;20025;-65
2023/08/15 01:46:56;;;;;;;18.75;5.25;;;;;;;17.91;100.00;101094.63;5072622;28;20474;-65
2023/08/15 01:49:22;;;;;;;19.42;5.28;;;;;;;17.84;100.00;101104.56;5075087;28;20040;-65
2023/08/15 01:51:47;;;;;;;18.42;4.97;;;;;;;17.81;100.00;101098.38;5075938;28;20039;-65
2023/08/15 01:54:12;;;;;;;19.33;5.13;;;;;;;17.78;100.00;101105.56;5076107;28;20089;-66
2023/08/15 01:56:38;;;;;;;18.77;5.13;;;;;;;17.80;100.00;101107.34;5075836;28;20016;-65
2023/08/15 01:59:03;;;;;;;19.58;5.13;;;;;;;17.85;100.00;101116.13;5074696;28;20036;-65
2023/08/15 02:01:28;;;;;;;20.02;5.20;;;;;;;17.88;100.00;101116.03;5075721;28;20119;-65
2023/08/15 02:03:54;;;;;;;20.55;5.10;;;;;;;17.93;100.00;101120.41;5075589;28;20464;-65
2023/08/15 02:06:19;;;;;;;19.58;4.80;;;;;;;17.89;100.00;101120.50;5075896;28;20067;-64
2023/08/15 02:08:44;;;;;;;18.92;4.50;;;;;;;17.95;100.00;101125.72;5075498;28;20020;-64
2023/08/15 02:11:10;;;;;;;18.98;4.93;;;;;;;17.94;100.00;101129.34;5074287;28;20056;-65
2023/08/15 02:13:35;;;;;;;19.65;4.72;;;;;;;17.94;100.00;101124.88;5075692;28;20044;-64
2023/08/15 02:16:01;;;;;;;19.02;4.72;;;;;;;17.86;100.00;101133.94;5075452;28;20027;-65
2023/08/15 02:18:29;;;;;;;18.80;4.85;;;;;;;17.78;100.00;101137.66;5075425;28;20029;-65
2023/08/15 02:20:54;;;;;;;21.15;5.20;;;;;;;17.76;100.00;101147.47;5075591;28;20036;-64
2023/08/15 02:23:20;;;;;;;20.00;5.10;;;;;;;17.71;100.00;101146.69;5075376;28;20032;-65
2023/08/15 02:25:45;;;;;;;19.25;5.18;;;;;;;17.70;100.00;101146.75;5075162;28;20028;-64
2023/08/15 02:28:10;;;;;;;20.48;5.63;;;;;;;17.59;100.00;101150.50;5075319;28;20085;-64
2023/08/15 02:30:39;;;;;;;20.40;5.22;;;;;;;17.56;100.00;101145.22;5075100;28;20118;-64
2023/08/15 02:33:07;;;;;;;21.55;5.45;;;;;;;17.51;100.00;101156.91;5074266;28;20043;-64
2023/08/15 02:35:33;;;;;;;20.08;5.57;;;;;;;17.40;100.00;101143.75;5075514;28;20024;-64
2023/08/15 02:37:59;;;;;;;20.25;5.55;;;;;;;17.34;100.00;101154.56;5075025;28;20029;-65
2023/08/15 02:40:26;;;;;;;21.00;5.70;;;;;;;17.28;100.00;101152.88;5074966;28;20043;-64
2023/08/15 02:42:52;;;;;;;19.77;5.55;;;;;;;17.22;100.00;101140.50;5075089;28;20085;-64
2023/08/15 02:45:17;;;;;;;20.50;5.55;;;;;;;17.26;100.00;101144.03;5074936;28;20029;-65
2023/08/15 02:47:44;;;;;;;19.25;5.47;;;;;;;17.29;100.00;101138.63;5074876;28;20025;-64
2023/08/15 02:50:10;;;;;;;21.08;5.75;;;;;;;17.28;100.00;101128.84;5074760;28;20049;-64
2023/08/15 02:52:36;;;;;;;22.30;6.00;;;;;;;17.21;100.00;101137.88;5074753;28;20032;-65
2023/08/15 02:55:01;;;;;;;18.40;5.53;;;;;;;17.16;100.00;101137.09;5074692;28;20051;-64
2023/08/15 02:57:26;;;;;;;20.40;5.85;;;;;;;17.13;100.00;101145.16;5074855;28;20387;-64
2023/08/15 02:59:52;;;;;;;19.90;5.68;;;;;;;17.01;100.00;101131.13;5074170;28;20159;-64
2023/08/15 03:02:17;;;;;;;21.13;6.20;;;;;;;17.03;100.00;101129.28;5074820;28;20379;-65
2023/08/15 03:04:42;;;;;;;20.65;6.07;;;;;;;16.99;100.00;101148.94;5074552;28;20468;-65
2023/08/15 03:07:08;;;;;;;20.73;6.30;;;;;;;16.94;100.00;101144.63;5074474;28;20371;-65
2023/08/15 03:09:33;;;;;;;22.42;6.57;;;;;;;16.92;100.00;101144.66;5074620;28;20033;-64
2023/08/15 03:11:58;;;;;;;20.48;6.00;;;;;;;16.91;100.00;101150.88;5073340;28;20490;-64
2023/08/15 03:14:28;;;;;;;21.08;6.00;;;;;;;16.82;100.00;101140.31;5074344;28;20119;-64
2023/08/15 03:16:53;;;;;;;21.17;6.28;;;;;;;16.88;100.00;101140.25;5074740;28;20040;-64
2023/08/15 03:19:19;;;;;;;21.15;6.53;;;;;;;16.82;100.00;101138.53;5074311;28;20024;-64
2023/08/15 03:21:44;;;;;;;20.55;6.25;;;;;;;16.76;100.00;101145.75;5074191;28;20036;-64
2023/08/15 03:24:09;;;;;;;21.25;6.30;;;;;;;16.68;100.00;101149.44;5074273;28;20025;-65
2023/08/15 03:26:35;;;;;;;22.15;6.18;;;;;;;16.64;100.00;101142.38;5074026;28;20115;-64
2023/08/15 03:29:01;;;;;;;20.85;6.50;;;;;;;16.64;100.00;101142.38;5073987;28;20391;-64
2023/08/15 03:31:26;;;;;;;19.73;6.28;;;;;;;16.69;100.00;101145.88;5074188;28;20029;-64
2023/08/15 03:33:52;;;;;;;21.33;6.50;;;;;;;16.62;100.00;101144.19;5074028;28;20058;-65
2023/08/15 03:36:17;;;;;;;22.38;6.45;;;;;;;16.59;100.00;101141.59;5073909;28;20048;-64
2023/08/15 03:38:42;;;;;;;21.40;6.40;;;;;;;16.62;100.00;101154.00;5074093;28;20033;-64
2023/08/15 03:41:08;;;;;;;18.98;6.30;;;;;;;16.63;100.00;101155.75;5072638;28;20471;-64
2023/08/15 03:43:34;;;;;;;21.30;6.65;;;;;;;16.55;100.00;101163.88;5073899;28;20035;-65
2023/08/15 03:46:01;;;;;;;21.02;6.68;;;;;;;16.57;100.00;101162.06;5073701;28;20029;-65
2023/08/15 03:48:29;;;;;;;21.88;6.22;;;;;;;16.51;100.00;101162.16;5073698;28;20111;-64
2023/08/15 03:50:56;;;;;;;20.38;6.35;;;;;;;16.51;100.00;101167.50;5073736;28;20083;-65
2023/08/15 03:53:22;;;;;;;20.15;6.18;;;;;;;16.47;100.00;101177.34;5073917;28;20459;-64
2023/08/15 03:55:51;;;;;;;20.90;6.20;;;;;;;16.43;100.00;101180.09;5069406;28;20051;-64
2023/08/15 03:58:18;;;;;;;20.15;5.72;;;;;;;16.43;100.00;101175.63;5072427;28;20028;-64
2023/08/15 04:00:44;;;;;;;21.35;6.25;;;;;;;16.29;100.00;101175.81;5073668;28;20052;-64
2023/08/15 04:03:09;;;;;;;20.13;6.38;;;;;;;16.22;100.00;101171.44;5073409;28;20494;-64
2023/08/15 04:05:35;;;;;;;19.77;6.32;;;;;;;16.17;100.00;101170.66;5073485;28;20033;-66
2023/08/15 04:08:00;;;;;;;21.13;6.18;;;;;;;16.12;100.00;101169.81;5073223;28;20042;-64
2023/08/15 04:10:26;;;;;;;20.50;6.15;;;;;;;16.06;100.00;101169.91;5072661;28;20040;-65
2023/08/15 04:12:51;;;;;;;18.48;5.85;;;;;;;16.03;100.00;101169.06;5073417;28;20031;-64
2023/08/15 04:15:17;;;;;;;19.80;6.43;;;;;;;16.01;100.00;101170.84;5073110;28;20360;-64
2023/08/15 04:17:42;;;;;;;21.77;6.28;;;;;;;16.00;100.00;101166.44;5073097;28;20028;-64
2023/08/15 04:20:08;;;;;;;21.52;6.72;;;;;;;16.04;100.00;101156.59;5072063;28;20028;-65
2023/08/15 04:22:36;;;;;;;20.33;6.43;;;;;;;15.93;100.00;101162.09;5073072;28;20033;-64
2023/08/15 04:25:01;;;;;;;21.60;7.05;;;;;;;15.91;100.00;101169.19;5072867;28;20479;-65
2023/08/15 04:27:26;;;;;;;20.23;6.63;;;;;;;15.90;100.00;101159.47;5073115;28;20036;-65
2023/08/15 04:29:55;;;;;;;23.23;7.13;;;;;;;15.92;100.00;101165.66;5072942;28;20035;-64
2023/08/15 04:32:20;;;;;;;24.42;7.22;;;;;;;15.91;100.00;101171.88;5069426;28;20383;-65
2023/08/15 04:34:46;;;;;;;21.02;6.82;;;;;;;15.86;100.00;101169.25;5073141;28;20024;-65
2023/08/15 04:37:11;;;;;;;22.10;7.03;;;;;;;15.85;100.00;101183.47;5072816;28;20075;-64
2023/08/15 04:39:36;;;;;;;21.88;7.15;;;;;;;15.82;100.00;101188.00;5073035;28;20040;-64
2023/08/15 04:42:02;;;;;;;21.95;6.63;;;;;;;15.81;100.00;101175.56;5073007;28;20051;-64
2023/08/15 04:44:27;;;;;;;22.08;7.40;;;;;;;15.83;100.00;101193.28;5072736;28;20364;-66
2023/08/15 04:46:52;;;;;;;20.67;6.93;;;;;;;15.76;100.00;101199.56;5072811;28;20442;-64
2023/08/15 04:49:18;;;;;;;22.52;7.25;;;;;;;15.74;100.00;101192.47;5072951;28;20479;-65
2023/08/15 04:51:43;;;;;;;21.40;7.00;;;;;;;15.72;100.00;101197.81;5071745;28;20028;-64
2023/08/15 04:54:09;;;;;;;22.17;7.20;;;;;;;15.72;100.00;101207.63;5072776;28;20029;-65
2023/08/15 04:56:34;;;;;;;20.67;7.10;;;;;;;15.76;100.00;101209.34;5072569;28;20056;-64
2023/08/15 04:59:00;;;;;;;22.25;7.57;;;;;;;15.78;100.00;101216.44;5072626;28;20498;-64
2023/08/15 05:01:25;;;;;;;21.45;7.22;;;;;;;15.81;100.00;101220.88;5072815;28;20471;-64
2023/08/15 05:03:50;;;;;;;20.10;7.07;;;;;;;15.86;100.00;101229.72;5072553;28;20521;-65
2023/08/15 05:06:16;;;;;;;23.10;7.80;;;;;;;15.89;100.00;101239.44;5072523;28;20040;-64
2023/08/15 05:08:41;;;;;;;21.88;7.15;;;;;;;15.88;100.00;101246.56;5072680;28;20440;-64
2023/08/15 05:11:08;;;;;;;22.20;7.80;;;;;;;15.90;100.00;101244.78;5072454;28;20032;-65
2023/08/15 05:13:33;;;;;;;22.02;7.40;;;;;;;15.89;100.00;101252.75;5072504;28;20020;-65
2023/08/15 05:15:59;;;;;;;21.80;7.38;;;;;;;15.90;100.00;101254.53;5072900;28;20547;-64
2023/08/15 05:18:24;;;;;;;22.13;7.60;;;;;;;15.90;100.00;101259.88;5072431;28;20120;-64
2023/08/15 05:20:50;;;;;;;22.73;7.50;;;;;;;15.92;100.00;101258.94;5072514;28;20542;-65
2023/08/15 05:23:15;;;;;;;21.92;7.78;;;;;;;15.98;100.00;101268.66;5075804;28;20433;-65
2023/08/15 05:25:43;;;;;;;21.98;7.13;;;;;;;15.99;100.00;101275.78;5074514;28;20036;-64
2023/08/15 05:28:09;;;;;;;21.25;7.00;;;;;;;16.03;100.00;101278.38;5079378;28;20027;-66
2023/08/15 05:30:34;;;;;;;21.58;6.93;;;;;;;16.14;100.00;101280.03;5075686;28;20033;-67
2023/08/15 05:33:00;;;;;;;23.17;7.05;;;;;;;16.16;100.00;101273.78;5076211;28;20036;-65
2023/08/15 05:35:26;;;;;;;20.60;6.70;;;;;;;16.20;100.00;101279.97;5076026;28;20032;-63
2023/08/15 05:37:51;;;;;;;21.45;6.82;;;;;;;16.25;100.00;101280.81;5076235;28;20476;-65
2023/08/15 05:40:17;;;;;;;19.25;6.75;;;;;;;16.30;100.00;101273.59;5075916;28;20028;-64
2023/08/15 05:42:42;;;;;;;21.95;7.13;;;;;;;16.35;100.00;101263.78;5075708;28;20020;-68
2023/08/15 05:45:09;;;;;;;21.83;7.20;;;;;;;16.42;100.00;101264.56;5075779;28;20036;-68
2023/08/15 05:47:34;;;;;;;21.52;6.90;;;;;;;16.49;100.00;101262.69;5075786;28;20040;-64
2023/08/15 05:50:00;;;;;;;21.02;6.65;;;;;;;16.54;100.00;101268.84;5075761;28;20057;-68
2023/08/15 05:52:26;;;;;;;20.95;6.53;;;;;;;16.60;100.00;101271.44;5075657;28;20025;-66
2023/08/15 05:54:52;;;;;;;21.45;6.60;;;;;;;16.69;100.00;101278.44;5075229;28;20028;-65
2023/08/15 05:57:17;;;;;;;21.00;7.10;;;;;;;16.72;100.00;101278.41;5075871;28;20429;-67
2023/08/15 05:59:42;;;;;;;20.02;6.60;;;;;;;16.76;100.00;101289.91;5075619;28;20550;-67
2023/08/15 06:02:08;;;;;;;21.83;7.10;;;;;;;16.79;100.00;101292.53;5075580;28;20357;-64
2023/08/15 06:04:33;;;;;;;21.15;7.05;;;;;;;16.84;100.00;101299.56;5075657;28;20503;-67
2023/08/15 06:06:58;;;;;;;21.83;6.95;;;;;;;16.87;100.00;101288.88;5075009;28;20037;-70
2023/08/15 06:09:24;;;;;;;20.33;7.10;;;;;;;16.90;100.00;101293.28;5075340;28;20056;-65
2023/08/15 06:11:50;;;;;;;22.83;7.80;;;;;;;16.96;100.00;101295.84;5075612;28;20467;-66
2023/08/15 06:14:19;;;;;;;21.23;7.05;;;;;;;17.02;100.00;101305.56;5075346;28;20416;-69
2023/08/15 06:16:44;;;;;;;21.83;7.28;;;;;;;17.06;100.00;101315.31;5075281;28;20028;-64
2023/08/15 06:19:09;;;;;;;21.85;7.28;;;;;;;17.13;100.00;101324.13;5075087;28;20036;-63
2023/08/15 06:21:35;;;;;;;20.92;7.25;;;;;;;17.18;100.00;101314.22;5075195;28;20032;-64
2023/08/15 06:24:00;;;;;;;22.58;7.30;;;;;;;17.23;100.00;101320.41;5075393;28;20107;-65
2023/08/15 06:26:26;;;;;;;21.77;7.88;;;;;;;17.29;100.00;101317.63;5075055;28;20032;-64
2023/08/15 06:28:51;;;;;;;22.33;7.03;;;;;;;17.35;100.00;101317.50;5075474;28;20627;-65
2023/08/15 06:31:17;;;;;;;22.42;7.38;;;;;;;17.42;100.00;101319.19;5074745;28;20029;-64
2023/08/15 06:33:42;;;;;;;22.63;7.35;;;;;;;17.50;100.00;101320.84;5071588;28;20054;-64
2023/08/15 06:36:07;;;;;;;20.85;7.38;;;;;;;17.54;100.00;101315.41;5070503;28;20406;-65
2023/08/15 06:38:33;;;;;;;22.17;7.45;;;;;;;17.60;100.00;101319.78;5073401;28;20082;-63
2023/08/15 06:40:58;;;;;;;22.50;7.70;;;;;;;17.65;100.00;101325.94;5069415;28;20039;-65
2023/08/15 06:43:23;;;;;;;22.60;7.75;;;;;;;17.73;100.00;101324.00;5074419;28;20380;-64
2023/08/15 06:45:49;;;;;;;22.13;8.32;;;;;;;17.81;100.00;101323.88;5074941;28;20029;-67
2023/08/15 06:48:14;;;;;;;21.98;7.70;;;;;;;17.86;100.00;101330.00;5073544;28;20038;-64
2023/08/15 06:50:40;;;;;;;22.60;8.20;;;;;;;17.90;100.00;101325.53;5070070;28;20097;-63
2023/08/15 06:53:05;;;;;;;21.50;7.80;;;;;;;17.99;100.00;101330.69;5074948;28;20032;-64
2023/08/15 06:55:31;;;;;;;22.17;7.65;;;;;;;18.06;100.00;101332.34;5074198;28;20028;-63
2023/08/15 06:57:56;;;;;;;23.58;8.40;;;;;;;18.14;100.00;101334.00;5074622;28;20067;-65
2023/08/15 07:00:22;;;;;;;23.60;8.45;;;;;;;18.18;100.00;101330.34;5074911;28;20400;-63
2023/08/15 07:02:47;;;;;;;22.20;7.72;;;;;;;18.23;100.00;101328.44;5070570;28;20027;-64
2023/08/15 07:05:13;;;;;;;21.05;7.72;;;;;;;18.32;100.00;101322.94;5074624;28;20028;-64
2023/08/15 07:07:38;;;;;;;23.15;7.53;;;;;;;18.41;100.00;101324.53;5074019;28;20471;-64
2023/08/15 07:10:07;;;;;;;21.77;6.97;;;;;;;18.54;100.00;101333.19;5070469;28;20060;-66
2023/08/15 07:12:33;;;;;;;22.63;7.47;;;;;;;18.59;100.00;101325.94;5068962;28;20505;-65
2023/08/15 07:15:00;;;;;;;20.92;7.03;;;;;;;18.64;100.00;101329.41;5074187;28;20100;-66
2023/08/15 07:17:25;;;;;;;22.40;7.30;;;;;;;18.68;100.00;101325.72;5073247;28;20024;-68
2023/08/15 07:19:50;;;;;;;20.88;7.22;;;;;;;18.76;100.00;101326.44;5072594;28;20107;-68
2023/08/15 07:22:16;;;;;;;22.23;7.03;;;;;;;18.86;100.00;101329.84;5073885;28;20035;-67
2023/08/15 07:24:41;;;;;;;22.15;6.53;;;;;;;19.07;100.00;101340.97;5073928;28;20032;-68
2023/08/15 07:27:07;;;;;;;20.20;6.53;;;;;;;19.23;100.00;101346.88;5070452;28;20035;-68
2023/08/15 07:29:32;;;;;;;21.70;6.47;;;;;;;19.33;100.00;101353.75;5069132;28;20115;-66
2023/08/15 07:31:58;;;;;;;20.55;5.88;;;;;;;19.42;100.00;101350.84;5072140;28;20056;-70
2023/08/15 07:34:23;;;;;;;20.35;5.70;;;;;;;19.48;100.00;101340.00;5072626;28;20060;-69
2023/08/15 07:36:49;;;;;;;19.40;5.35;;;;;;;19.57;100.00;101346.94;5073490;28;20371;-69
2023/08/15 07:39:14;;;;;;;18.40;5.35;;;;;;;19.61;100.00;101355.75;5073334;28;20107;-68
2023/08/15 07:41:41;;;;;;;20.33;5.75;;;;;;;19.56;100.00;101360.38;5072922;28;20467;-70
2023/08/15 07:44:07;;;;;;;19.77;5.10;;;;;;;19.55;100.00;101355.94;5073758;28;20038;-69
2023/08/15 07:46:32;;;;;;;19.92;5.28;;;;;;;19.48;100.00;101357.88;5073715;28;20111;-69
2023/08/15 07:48:57;;;;;;;17.70;5.00;;;;;;;19.50;100.00;101354.22;5073712;28;20021;-68
2023/08/15 07:51:23;;;;;;;20.98;5.10;;;;;;;19.49;100.00;101352.47;5072420;28;20556;-69
2023/08/15 07:53:48;;;;;;;19.67;5.00;;;;;;;19.49;100.00;101357.81;5073725;28;20111;-68
2023/08/15 07:56:14;;;;;;;18.75;4.63;;;;;;;19.58;100.00;101356.72;5073532;28;20028;-69
2023/08/15 07:58:39;;;;;;;19.45;4.97;;;;;;;19.65;100.00;101362.81;5072227;28;20387;-69
2023/08/15 08:01:04;;;;;;;20.52;4.90;;;;;;;19.81;100.00;101364.22;5072403;28;20029;-69
2023/08/15 08:03:30;;;;;;;19.75;5.07;;;;;;;20.06;100.00;101368.06;5073480;28;20039;-64
2023/08/15 08:05:55;;;;;;;18.65;5.18;;;;;;;20.14;100.00;101371.38;5073258;28;20095;-64
2023/08/15 08:08:21;;;;;;;20.40;4.80;;;;;;;20.37;100.00;101368.06;5073517;28;20037;-64
2023/08/15 08:10:46;;;;;;;19.60;4.85;;;;;;;20.49;100.00;101366.84;5073001;28;20093;-64
2023/08/15 08:13:16;;;;;;;18.65;4.70;;;;;;;20.49;100.00;101369.53;5071999;28;20086;-64
2023/08/15 08:15:42;;;;;;;19.20;4.97;;;;;;;20.48;100.00;101360.59;5073293;28;20050;-64
2023/08/15 08:18:07;;;;;;;17.85;4.45;;;;;;;20.77;100.00;101366.94;5073452;28;20020;-63
2023/08/15 08:20:33;;;;;;;18.85;4.28;;;;;;;20.87;100.00;101368.44;5073127;28;20032;-64
2023/08/15 08:22:58;;;;;;;19.13;4.80;;;;;;;20.97;100.00;101360.97;5073162;28;20485;-64
2023/08/15 08:25:24;;;;;;;17.52;3.97;;;;;;;21.43;100.00;101372.06;5072923;28;20032;-65
2023/08/15 08:27:50;;;;;;;17.27;4.10;;;;;;;21.56;100.00;101372.56;5072993;28;20027;-64
2023/08/15 08:30:17;;;;;;;18.52;4.32;;;;;;;21.63;100.00;101381.34;5072995;28;20036;-64
2023/08/15 08:32:43;;;;;;;18.08;4.30;;;;;;;21.77;100.00;101379.06;5072963;28;20097;-64
2023/08/15 08:35:10;;;;;;;20.38;4.40;;;;;;;21.79;100.00;101368.25;5072828;28;20463;-64
2023/08/15 08:37:35;;;;;;;19.52;4.60;;;;;;;21.81;100.00;101378.00;5073058;28;20052;-64
2023/08/15 08:40:01;;;;;;;17.92;4.20;;;;;;;21.96;100.00;101375.72;5072920;28;20064;-64
2023/08/15 08:42:27;;;;;;;18.17;4.38;;;;;;;21.79;100.00;101374.50;5072786;28;20443;-68
2023/08/15 08:44:55;;;;;;;18.55;4.30;;;;;;;21.63;100.00;101370.56;5072955;28;20108;-69
2023/08/15 08:47:23;;;;;;;18.67;4.40;;;;;;;21.59;100.00;101369.78;5072681;28;20028;-69
2023/08/15 08:49:51;;;;;;;18.95;4.70;;;;;;;21.82;100.00;101379.75;5072507;28;20487;-68
2023/08/15 08:52:17;;;;;;;16.77;4.10;;;;;;;21.75;100.00;101378.22;5072980;28;20056;-68
2023/08/15 08:54:42;;;;;;;18.02;4.22;;;;;;;22.25;100.00;101375.56;5071268;28;20025;-69
2023/08/15 08:57:09;;;;;;;16.27;4.00;;;;;;;22.43;100.00;101381.25;5070933;28;20033;-68
2023/08/15 08:59:37;;;;;;;17.80;3.88;;;;;;;22.64;100.00;101382.25;5073110;28;20107;-69
2023/08/15 09:02:02;;;;;;;18.55;4.28;;;;;;;22.60;100.00;101394.97;5072560;28;20024;-69
2023/08/15 09:04:27;;;;;;;17.27;4.13;;;;;;;22.78;100.00;101388.00;5072612;28;20082;-68
2023/08/15 09:06:54;;;;;;;18.60;4.50;;;;;;;23.11;100.00;101386.78;5072998;28;20063;-69
2023/08/15 09:09:19;;;;;;;18.55;4.50;;;;;;;22.88;100.00;101384.97;5072481;28;20024;-68
2023/08/15 09:11:46;;;;;;;18.15;4.40;;;;;;;22.70;100.00;101389.22;5072691;28;20058;-69
2023/08/15 09:14:12;;;;;;;17.15;4.13;;;;;;;23.05;100.00;101393.28;5072892;28;20067;-68
2023/08/15 09:16:47;;;;;;;18.27;4.30;;;;;;;23.17;100.00;101393.75;5072675;28;20024;-70
2023/08/15 09:19:13;;;;;;;19.85;4.65;;;;;;;23.09;100.00;101383.22;5072504;28;20032;-69
2023/08/15 09:21:39;;;;;;;18.45;4.55;;;;;;;23.14;100.00;101405.53;5072675;28;20028;-69
2023/08/15 09:24:04;;;;;;;16.27;4.18;;;;;;;23.24;100.00;101393.44;5072579;28;20036;-65
2023/08/15 09:26:34;;;;;;;17.63;4.40;;;;;;;23.21;100.00;101395.38;5072285;28;20097;-66
2023/08/15 09:29:02;;;;;;;19.40;4.53;;;;;;;23.41;100.00;101408.06;5072502;28;20497;-66
2023/08/15 09:31:28;;;;;;;18.33;4.45;;;;;;;24.18;100.00;101404.84;5072274;28;20060;-64
2023/08/15 09:33:53;;;;;;;15.90;4.50;;;;;;;24.50;100.00;101402.53;5072331;28;20068;-66
2023/08/15 09:36:19;;;;;;;19.30;4.50;;;;;;;24.71;100.00;101409.72;5072438;28;20449;-64
2023/08/15 09:38:44;;;;;;;18.33;4.43;;;;;;;24.73;100.00;101406.94;5072232;28;20494;-64
2023/08/15 09:41:11;;;;;;;16.88;4.05;;;;;;;25.04;100.00;101410.88;5072176;28;20028;-65
2023/08/15 09:43:48;;;;;;;14.32;3.70;;;;;;;25.13;100.00;101405.03;5072330;28;20134;-65
2023/08/15 09:46:13;;;;;;;17.15;3.90;;;;;;;24.92;100.00;101409.66;5072197;28;20073;-66
2023/08/15 09:48:39;;;;;;;17.48;4.15;;;;;;;24.34;100.00;101408.63;5072058;28;20032;-65
2023/08/15 09:51:08;;;;;;;18.58;4.60;;;;;;;23.95;100.00;101409.41;5072073;28;20049;-65
2023/08/15 09:53:35;;;;;;;18.10;4.05;;;;;;;24.00;100.00;101422.75;5072042;28;20016;-66
2023/08/15 09:56:01;;;;;;;17.42;3.92;;;;;;;24.40;100.00;101423.69;5072323;28;20033;-65
2023/08/15 09:58:26;;;;;;;16.50;3.65;;;;;;;24.52;100.00;101412.34;5072194;28;20383;-65
2023/08/15 10:00:54;;;;;;;17.55;3.88;;;;;;;25.25;100.00;101425.19;5072079;28;20060;-64
2023/08/15 10:03:28;;;;;;;15.23;3.65;;;;;;;25.42;100.00;101426.25;5072017;28;20024;-65
2023/08/15 10:05:55;;;;;;;16.50;3.50;;;;;;;25.57;100.00;101426.38;5071984;28;20103;-65
2023/08/15 10:08:22;;;;;;;17.33;3.60;;;;;;;25.75;100.00;101434.53;5072540;28;20082;-64
2023/08/15 10:10:58;;;;;;;14.18;3.30;;;;;;;26.64;100.00;101444.44;5075674;28;20033;-64
2023/08/15 10:13:31;;;;;;;17.25;3.83;;;;;;;27.63;100.00;101456.16;5075631;28;20027;-64
2023/08/15 10:15:58;;;;;;;16.30;3.55;;;;;;;28.03;100.00;101459.25;5071690;28;20025;-65
2023/08/15 10:18:24;;;;;;;16.60;3.20;;;;;;;27.48;100.00;101453.38;5075578;28;20040;-65
2023/08/15 10:20:51;;;;;;;16.73;3.15;;;;;;;27.13;100.00;101447.22;5075412;28;20059;-65
2023/08/15 10:23:24;;;;;;;16.13;3.30;;;;;;;26.69;100.00;101450.50;5075570;28;20405;-64
2023/08/15 10:25:52;;;;;;;15.63;3.42;;;;;;;27.17;100.00;101446.03;5075478;28;20115;-64
2023/08/15 10:28:19;;;;;;;14.95;3.20;;;;;;;27.68;100.00;101451.31;5075274;28;20059;-65
2023/08/15 10:30:46;;;;;;;16.83;3.35;;;;;;;28.58;100.00;101449.59;5075155;28;20085;-65
2023/08/15 10:33:13;;;;;;;16.08;3.20;;;;;;;29.81;97.11;101440.81;5075379;28;20025;-64
2023/08/15 10:35:58;;;;;;;16.67;3.55;;;;;;;30.45;79.99;101452.88;5075075;28;20029;-64
2023/08/15 10:38:31;;;;;;;15.18;3.25;;;;;;;29.28;75.70;101453.41;5074382;28;20083;-65
2023/08/15 10:41:22;;;;;;;15.75;3.10;;;;;;;28.82;90.06;101466.25;5071353;28;20028;-65
2023/08/15 10:43:50;;;;;;;15.00;3.30;;;;;;;29.03;82.22;101464.00;5072998;28;20041;-65
2023/08/15 10:46:18;;;;;;;17.38;3.28;;;;;;;29.11;76.02;101449.03;5074881;28;20033;-65
2023/08/15 10:48:54;;;;;;;14.35;3.35;;;;;;;28.13;97.07;101455.03;5075117;28;20024;-65
2023/08/15 10:51:24;;;;;;;16.52;3.20;;;;;;;27.23;100.00;101459.28;5074550;28;20151;-68
2023/08/15 10:53:51;;;;;;;16.33;3.20;;;;;;;26.55;100.00;101449.38;5074810;28;20025;-68
2023/08/15 10:56:22;;;;;;;16.05;3.40;;;;;;;26.45;100.00;101451.69;5074777;28;20032;-68
2023/08/15 10:58:48;;;;;;;16.33;3.17;;;;;;;26.12;100.00;101445.34;5074960;28;20091;-69
2023/08/15 11:01:17;;;;;;;16.88;3.42;;;;;;;25.65;100.00;101444.94;5074916;28;20037;-69
2023/08/15 11:03:43;;;;;;;14.55;3.40;;;;;;;25.32;100.00;101447.47;5074537;28;20029;-69
2023/08/15 11:06:11;;;;;;;16.70;3.50;;;;;;;26.23;100.00;101445.69;5075029;28;20037;-70